Time;durP1;ratioP1;P1;durP2;ratioP2;P2;SDS_P1;SDS_P2;PMS_P1;PMS_P2;Temp;Humidity;BMP_temperature;BMP_pressure;BME280_temperature;BME280_humidity;BME280_pressure;Samples;Min_cycle;Max_cycle;Signal;HPM_P1;HPM_P2
2021/12/17 00:04:39;;;;;;;6.40;3.28;;;;;;;19.64;39.04;103895.81;7314835;19;128722;-65
2021/12/17 00:07:10;;;;;;;5.25;2.63;;;;;;;19.64;39.06;103901.38;7317622;19;130657;-65
2021/12/17 00:09:39;;;;;;;10.25;3.00;;;;;;;19.62;39.22;103897.91;7314521;19;130862;-65
2021/12/17 00:12:09;;;;;;;8.55;3.03;;;;;;;19.60;39.27;103897.22;7316505;19;129113;-65
2021/12/17 00:14:38;;;;;;;7.80;2.90;;;;;;;19.60;38.82;103897.22;7313821;19;130906;-65
2021/12/17 00:17:10;;;;;;;7.88;3.00;;;;;;;19.58;39.18;103890.97;7313662;19;131502;-65
2021/12/17 00:52:36;;;;;;;9.95;3.15;;;;;;;19.36;38.74;103876.00;7312398;19;132871;-65
2021/12/17 00:55:04;;;;;;;8.65;3.53;;;;;;;19.35;38.94;103880.66;7313622;19;129404;-65
2021/12/17 00:57:39;;;;;;;9.07;3.22;;;;;;;19.33;39.10;103879.13;7312988;19;130378;-65
2021/12/17 01:00:16;;;;;;;5.35;3.30;;;;;;;19.31;39.20;103884.88;7311498;19;130646;-65
2021/12/17 01:02:44;;;;;;;5.93;3.33;;;;;;;19.29;38.99;103878.63;7314250;19;131752;-65
2021/12/17 01:05:16;;;;;;;9.43;2.95;;;;;;;19.29;39.25;103880.50;7312267;19;129958;-65
2021/12/17 01:07:47;;;;;;;7.75;3.80;;;;;;;19.27;38.81;103879.81;7314573;19;128953;-65
2021/12/17 01:10:27;;;;;;;5.57;3.05;;;;;;;19.26;39.02;103876.19;7312259;19;130967;-65
2021/12/17 01:12:56;;;;;;;5.45;3.20;;;;;;;19.23;39.17;103871.00;7314132;19;130619;-65
2021/12/17 01:15:23;;;;;;;8.63;3.58;;;;;;;19.22;38.90;103870.16;7314940;19;129520;-65
2021/12/17 01:17:56;;;;;;;4.88;3.20;;;;;;;19.22;39.23;103866.47;7311737;19;129069;-65
2021/12/17 01:23:59;;;;;;;7.57;3.40;;;;;;;19.20;38.76;103860.25;7312272;19;130718;-65
2021/12/17 01:36:24;;;;;;;6.00;3.67;;;;;;;19.13;38.91;103849.00;7308645;19;130201;-65
2021/12/17 01:44:06;;;;;;;5.78;3.55;;;;;;;19.09;39.07;103847.59;7312312;19;131854;-65
2021/12/17 01:46:36;;;;;;;8.68;3.80;;;;;;;19.07;38.90;103847.78;7307851;19;129075;-64
2021/12/17 02:00:12;;;;;;;7.22;4.18;;;;;;;19.05;38.81;103851.75;7308423;19;129992;-65
2021/12/17 02:02:45;;;;;;;7.32;3.90;;;;;;;19.03;38.75;103859.41;7308942;19;131226;-65
2021/12/17 02:05:14;;;;;;;7.20;3.90;;;;;;;19.03;39.00;103865.81;7311211;19;131161;-65
2021/12/17 02:07:42;;;;;;;7.25;4.30;;;;;;;19.02;38.78;103860.44;7307932;19;128840;-64
2021/12/17 02:31:54;;;;;;;6.05;3.67;;;;;;;18.94;38.86;103869.69;7313969;19;129234;-64
2021/12/17 02:37:10;;;;;;;6.25;3.97;;;;;;;18.92;38.84;103857.88;7317771;19;132293;-64
2021/12/17 02:47:40;;;;;;;5.22;4.03;;;;;;;18.89;38.75;103858.22;7315397;19;131711;-65
2021/12/17 02:50:09;;;;;;;6.95;3.97;;;;;;;18.88;38.94;103856.50;7313358;19;128834;-65
2021/12/17 02:52:37;;;;;;;8.60;5.15;;;;;;;18.87;38.99;103863.09;7315857;19;130380;-64
2021/12/17 02:55:06;;;;;;;7.13;4.43;;;;;;;18.85;38.83;103859.63;7314784;19;131327;-65
2021/12/17 02:57:35;;;;;;;6.97;4.85;;;;;;;18.85;38.96;103854.06;7314222;19;131793;-65
2021/12/17 03:00:06;;;;;;;9.30;4.65;;;;;;;18.85;38.67;103845.75;7312659;19;129339;-64
2021/12/17 03:02:38;;;;;;;9.20;4.65;;;;;;;18.84;38.91;103844.91;7312379;19;129467;-64
2021/12/17 03:05:06;;;;;;;5.95;4.07;;;;;;;18.83;38.52;103840.38;7315963;19;132657;-64
2021/12/17 03:07:39;;;;;;;8.52;4.43;;;;;;;18.84;38.74;103844.91;7310352;19;131983;-64
2021/12/17 03:10:10;;;;;;;8.48;4.90;;;;;;;18.82;38.80;103841.44;7316492;19;131277;-64
2021/12/17 03:23:29;;;;;;;;;;;;;;;18.77;38.63;103830.88;7316730;19;128946;-65
2021/12/17 03:26:01;;;;;;;6.68;5.13;;;;;;;18.80;38.69;103834.34;7310875;19;131918;-64
2021/12/17 03:28:27;;;;;;;6.72;4.47;;;;;;;18.79;38.63;103838.16;7316835;19;131299;-64
2021/12/17 03:30:54;;;;;;;7.13;4.72;;;;;;;18.77;38.49;103830.88;7312433;19;129998;-65
2021/12/17 03:33:21;;;;;;;5.80;4.28;;;;;;;18.77;38.84;103839.19;7316152;19;130103;-64
2021/12/17 03:35:50;;;;;;;6.90;4.13;;;;;;;18.76;38.51;103833.81;7312981;19;131325;-65
2021/12/17 03:38:17;;;;;;;5.78;4.43;;;;;;;18.75;38.75;103832.94;7314284;19;130728;-65
2021/12/17 03:40:46;;;;;;;9.05;4.78;;;;;;;18.75;38.50;103834.88;7311048;19;132899;-65
2021/12/17 03:43:20;;;;;;;4.93;3.95;;;;;;;18.73;38.45;103843.34;7311967;19;129172;-64
2021/12/17 03:45:47;;;;;;;5.07;4.20;;;;;;;18.73;38.65;103835.03;7315420;19;131329;-65
2021/12/17 03:48:14;;;;;;;7.55;4.20;;;;;;;18.73;38.94;103842.50;7312406;19;131077;-64
2021/12/17 03:50:41;;;;;;;7.35;4.95;;;;;;;18.72;38.68;103838.84;7314874;19;128984;-64
2021/12/17 03:53:09;;;;;;;7.13;4.68;;;;;;;18.71;38.75;103839.88;7311479;19;129051;-64
2021/12/17 03:55:35;;;;;;;6.10;4.50;;;;;;;18.71;38.51;103845.41;7314985;19;131141;-64
2021/12/17 03:58:02;;;;;;;6.57;4.45;;;;;;;18.72;38.59;103843.53;7312564;19;131051;-64
2021/12/17 04:00:29;;;;;;;6.60;4.38;;;;;;;18.73;38.80;103854.44;7314103;19;129692;-64
2021/12/17 04:02:57;;;;;;;7.28;4.50;;;;;;;18.72;38.89;103849.94;7311324;19;129101;-64
2021/12/17 04:05:25;;;;;;;6.72;4.50;;;;;;;18.70;38.81;103859.47;7313468;19;131078;-64
2021/12/17 04:07:52;;;;;;;6.57;4.47;;;;;;;18.69;38.78;103866.94;7312513;19;131167;-65
2021/12/17 04:10:19;;;;;;;7.22;4.43;;;;;;;18.68;38.43;103867.97;7311555;19;128991;-64
2021/12/17 04:15:16;;;;;;;6.57;4.68;;;;;;;18.67;38.30;103860.69;7310976;19;132095;-65
2021/12/17 04:17:47;;;;;;;7.78;4.72;;;;;;;18.67;38.47;103874.56;7314024;19;131003;-64
2021/12/17 04:20:14;;;;;;;6.15;4.65;;;;;;;18.66;38.24;103875.59;7309583;19;131201;-64
2021/12/17 04:22:40;;;;;;;7.55;4.95;;;;;;;18.65;38.48;103873.88;7315075;19;128879;-64
2021/12/17 04:25:07;;;;;;;6.82;4.88;;;;;;;18.64;38.57;103866.59;7309155;19;131313;-65
2021/12/17 04:27:34;;;;;;;5.28;4.22;;;;;;;18.63;38.41;103864.84;7314833;19;132330;-64
2021/12/17 04:30:01;;;;;;;7.00;4.90;;;;;;;18.63;38.36;103870.41;7311410;19;131030;-65
2021/12/17 04:32:28;;;;;;;8.48;4.97;;;;;;;18.61;38.52;103861.38;7312614;19;131875;-64
2021/12/17 04:34:55;;;;;;;6.35;4.95;;;;;;;18.60;38.57;103860.53;7314755;19;131709;-64
2021/12/17 04:37:22;;;;;;;7.90;4.60;;;;;;;18.61;38.30;103867.81;7311161;19;130938;-64
2021/12/17 04:39:49;;;;;;;6.55;4.68;;;;;;;18.62;38.12;103860.34;7312645;19;128980;-64
2021/12/17 04:42:29;;;;;;;10.48;5.50;;;;;;;18.60;38.06;103854.09;7309611;19;132040;-64
2021/12/17 04:44:58;;;;;;;7.57;4.85;;;;;;;18.60;38.34;103854.97;7314698;19;132268;-64
2021/12/17 04:58:27;;;;;;;9.07;5.18;;;;;;;18.55;37.92;103865.72;7313909;19;131849;-64
2021/12/17 05:01:01;;;;;;;9.00;5.47;;;;;;;18.56;37.99;103875.78;7308585;19;131751;-64
2021/12/17 05:03:28;;;;;;;10.38;5.60;;;;;;;18.55;37.90;103865.72;7312725;19;129013;-65
2021/12/17 05:05:55;;;;;;;7.28;5.05;;;;;;;18.55;38.18;103873.19;7305929;19;132234;-64
2021/12/17 05:08:23;;;;;;;9.27;5.55;;;;;;;18.55;38.09;103867.63;7312455;19;131276;-65
2021/12/17 05:11:18;;;;;;;8.43;5.35;;;;;;;18.55;38.22;103864.88;7311692;19;128864;-65
2021/12/17 05:22:15;;;;;;;10.70;5.72;;;;;;;18.52;37.89;103871.63;7307938;19;128961;-65
2021/12/17 05:24:42;;;;;;;8.93;5.50;;;;;;;18.53;38.13;103869.72;7311678;19;129067;-65
2021/12/17 05:27:08;;;;;;;9.27;5.78;;;;;;;18.54;38.16;103871.44;7310548;19;131471;-65
2021/12/17 05:29:35;;;;;;;7.60;5.28;;;;;;;18.55;37.61;103881.50;7311868;19;130583;-64
2021/12/17 05:32:03;;;;;;;10.52;5.65;;;;;;;18.54;37.73;103879.78;7310779;19;130559;-65
2021/12/17 05:34:30;;;;;;;9.38;5.70;;;;;;;18.54;37.75;103877.84;7313483;19;130057;-64
2021/12/17 05:36:57;;;;;;;10.55;6.13;;;;;;;18.55;37.98;103878.72;7310139;19;131228;-65
2021/12/17 05:39:23;;;;;;;9.05;5.65;;;;;;;18.54;38.07;103882.53;7312856;19;130503;-64
2021/12/17 05:41:52;;;;;;;10.38;5.53;;;;;;;18.54;37.61;103882.53;7309108;19;129122;-65
2021/12/17 05:44:20;;;;;;;8.90;5.75;;;;;;;18.55;37.97;103884.28;7310163;19;129185;-65
2021/12/17 05:46:49;;;;;;;8.95;5.82;;;;;;;18.54;37.81;103882.53;7309583;19;131434;-65
2021/12/17 05:49:17;;;;;;;10.02;6.18;;;;;;;18.53;37.90;103881.66;7311433;19;130589;-65
2021/12/17 05:51:44;;;;;;;8.73;5.63;;;;;;;18.54;37.58;103882.53;7309205;19;129116;-65
2021/12/17 05:54:11;;;;;;;9.52;6.00;;;;;;;18.52;37.47;103876.28;7310624;19;129461;-65
2021/12/17 05:56:39;;;;;;;11.10;6.20;;;;;;;18.51;37.77;103877.34;7312470;19;131433;-65
2021/12/17 05:59:07;;;;;;;10.45;6.10;;;;;;;18.51;37.84;103872.69;7310001;19;130772;-65
2021/12/17 06:01:34;;;;;;;8.15;5.78;;;;;;;18.51;37.66;103877.34;7310490;19;130821;-65
2021/12/17 06:04:02;;;;;;;9.55;6.25;;;;;;;18.51;37.81;103877.34;7309984;19;129107;-65
2021/12/17 06:06:35;;;;;;;11.20;6.15;;;;;;;18.50;37.47;103870.94;7311468;19;130580;-64
2021/12/17 06:09:05;;;;;;;9.55;6.40;;;;;;;18.49;37.42;103873.88;7308310;19;130486;-65
2021/12/17 06:11:33;;;;;;;10.95;6.20;;;;;;;18.49;37.50;103871.97;7312633;19;130819;-65
2021/12/17 06:14:00;;;;;;;10.20;6.22;;;;;;;18.50;37.66;103872.81;7307481;19;129706;-64
2021/12/17 06:16:27;;;;;;;10.05;6.30;;;;;;;18.50;37.85;103865.41;7305874;19;131260;-64
2021/12/17 06:18:54;;;;;;;9.43;6.13;;;;;;;18.51;37.68;103872.69;7307225;19;130903;-64
2021/12/17 06:21:22;;;;;;;10.18;6.22;;;;;;;18.50;37.54;103870.94;7308367;19;129363;-64
2021/12/17 06:23:48;;;;;;;9.48;5.68;;;;;;;18.51;37.63;103877.34;7308233;19;129802;-64
2021/12/17 06:26:15;;;;;;;10.60;6.00;;;;;;;18.49;37.61;103885.84;7307821;19;131315;-64
2021/12/17 06:28:42;;;;;;;8.98;6.00;;;;;;;18.48;37.54;103877.66;7312610;19;130574;-65
2021/12/17 06:31:09;;;;;;;10.77;6.45;;;;;;;18.46;37.73;103884.25;7309629;19;130259;-64
2021/12/17 06:33:36;;;;;;;10.05;6.22;;;;;;;18.47;37.63;103882.38;7313449;19;129513;-65
2021/12/17 06:36:03;;;;;;;8.95;6.07;;;;;;;18.46;37.52;103889.81;7309450;19;131192;-65
2021/12/17 06:38:29;;;;;;;9.68;6.50;;;;;;;18.45;37.57;103889.97;7311525;19;130500;-65
2021/12/17 06:40:58;;;;;;;9.48;6.35;;;;;;;18.45;37.29;103896.41;7303362;19;131827;-65
2021/12/17 06:43:32;;;;;;;10.45;5.97;;;;;;;18.44;37.45;103893.78;7309259;19;129327;-64
2021/12/17 06:46:19;;;;;;;13.05;6.63;;;;;;;18.43;37.39;103892.06;7307498;19;132048;-64
2021/12/17 06:48:48;;;;;;;13.90;6.90;;;;;;;18.42;37.23;103893.97;7308257;19;130415;-64
2021/12/17 06:59:41;;;;;;;9.18;6.32;;;;;;;18.36;37.72;103900.16;7317358;19;131234;-65
2021/12/17 07:08:36;;;;;;;9.48;6.55;;;;;;;18.33;37.39;103897.75;7315997;19;130825;-64
2021/12/17 07:21:31;;;;;;;10.93;6.47;;;;;;;18.31;37.49;103916.47;7315963;19;130851;-64
2021/12/17 07:34:42;;;;;;;9.70;6.47;;;;;;;18.28;37.08;103911.25;7317434;19;128665;-65
2021/12/17 07:39:36;;;;;;;11.63;6.18;;;;;;;18.27;37.03;103899.31;7315441;19;131947;-65
2021/12/17 07:42:03;;;;;;;8.55;5.95;;;;;;;18.27;37.14;103899.31;7317814;19;130590;-65
2021/12/17 07:44:30;;;;;;;8.18;5.80;;;;;;;18.28;37.22;103891.84;7313769;19;129414;-65
2021/12/17 07:46:57;;;;;;;8.30;5.78;;;;;;;18.26;37.44;103891.16;7318225;19;129497;-65
2021/12/17 07:49:24;;;;;;;8.63;5.97;;;;;;;18.28;37.07;103889.06;7314326;19;131716;-65
2021/12/17 07:51:51;;;;;;;8.25;6.22;;;;;;;18.28;37.21;103898.25;7317205;19;130767;-65
2021/12/17 07:54:18;;;;;;;11.98;6.18;;;;;;;18.28;37.08;103902.94;7312874;19;129039;-64
2021/12/17 07:56:45;;;;;;;8.45;6.07;;;;;;;18.28;37.15;103902.94;7315436;19;129190;-65
2021/12/17 07:59:13;;;;;;;10.65;5.90;;;;;;;18.29;37.16;103907.44;7310974;19;132182;-64
2021/12/17 08:01:40;;;;;;;9.30;6.38;;;;;;;18.28;37.38;103902.94;7314444;19;130603;-65
2021/12/17 08:04:10;;;;;;;9.88;6.15;;;;;;;18.29;37.02;103907.44;7314411;19;128868;-65
2021/12/17 08:06:38;;;;;;;10.80;6.53;;;;;;;18.29;37.14;103907.44;7312851;19;128990;-65
2021/12/17 08:09:05;;;;;;;12.55;6.43;;;;;;;18.29;37.10;103910.22;7310253;19;130553;-65
2021/12/17 08:11:38;;;;;;;10.88;6.22;;;;;;;18.28;37.12;103906.56;7315561;19;130829;-65
2021/12/17 08:14:13;;;;;;;9.50;6.30;;;;;;;18.28;36.85;103901.00;7318277;19;128833;-65
2021/12/17 08:23:09;;;;;;;11.15;6.53;;;;;;;18.29;37.22;103907.44;7318414;19;130652;-64
2021/12/17 08:27:29;;;;;;;11.90;6.47;;;;;;;18.27;37.15;103903.97;7317554;19;129481;-64
2021/12/17 08:32:44;;;;;;;9.98;6.80;;;;;;;18.25;37.22;103901.38;7317678;19;130563;-65
2021/12/17 08:35:11;;;;;;;11.70;7.00;;;;;;;18.25;37.05;103906.03;7314451;19;130886;-65
2021/12/17 08:37:38;;;;;;;11.15;7.00;;;;;;;18.25;36.90;103912.47;7317115;19;128816;-65
2021/12/17 08:40:07;;;;;;;12.60;6.22;;;;;;;18.25;36.83;103906.03;7314853;19;130828;-65
2021/12/17 08:42:33;;;;;;;9.82;6.57;;;;;;;18.27;36.93;103910.41;7315532;19;131328;-64
2021/12/17 08:45:00;;;;;;;9.93;6.32;;;;;;;18.26;37.15;103916.97;7314674;19;128966;-65
2021/12/17 08:47:27;;;;;;;9.30;6.93;;;;;;;18.27;37.16;103917.81;7315112;19;128872;-65
2021/12/17 08:49:54;;;;;;;8.88;6.38;;;;;;;18.26;37.12;103918.84;7314259;19;130669;-65
2021/12/17 08:52:21;;;;;;;10.40;6.65;;;;;;;18.24;37.16;103912.63;7314259;19;130401;-65
2021/12/17 08:54:47;;;;;;;11.73;6.80;;;;;;;18.25;36.94;103914.34;7316872;19;129979;-64
2021/12/17 08:57:14;;;;;;;10.18;7.25;;;;;;;18.24;36.90;103915.38;7314189;19;129454;-64
2021/12/17 08:59:41;;;;;;;12.48;7.15;;;;;;;18.22;37.31;103912.81;7316080;19;131336;-64
2021/12/17 09:02:07;;;;;;;8.82;6.68;;;;;;;18.23;37.05;103910.88;7312691;19;131189;-64
2021/12/17 09:04:34;;;;;;;12.27;7.15;;;;;;;18.23;36.76;103908.09;7316566;19;130017;-64
2021/12/17 09:07:01;;;;;;;10.80;6.90;;;;;;;18.23;37.04;103913.66;7313637;19;129491;-64
2021/12/17 09:09:28;;;;;;;9.13;6.60;;;;;;;18.22;37.02;103912.81;7316712;19;130297;-64
2021/12/17 09:11:55;;;;;;;9.20;6.43;;;;;;;18.23;37.19;103916.41;7312545;19;130498;-64
2021/12/17 09:14:22;;;;;;;13.18;6.93;;;;;;;18.22;36.78;103920.22;7316528;19;129428;-64
2021/12/17 09:16:50;;;;;;;12.43;6.97;;;;;;;18.24;37.12;103929.25;7313427;19;129115;-64
2021/12/17 09:19:17;;;;;;;10.30;6.53;;;;;;;18.21;36.74;103912.97;7311956;19;130663;-64
2021/12/17 09:21:44;;;;;;;9.52;6.38;;;;;;;18.21;36.69;103922.16;7313704;19;130516;-65
2021/12/17 09:24:11;;;;;;;11.27;6.97;;;;;;;18.21;36.69;103926.84;7314861;19;130159;-65
2021/12/17 09:26:37;;;;;;;11.35;7.10;;;;;;;18.22;36.82;103939.63;7315977;19;130555;-64
2021/12/17 09:29:04;;;;;;;10.45;6.70;;;;;;;18.21;36.72;103937.91;7312370;19;130702;-64
2021/12/17 09:31:31;;;;;;;11.50;7.43;;;;;;;18.20;36.79;103945.34;7314657;19;130734;-65
2021/12/17 09:33:57;;;;;;;11.95;6.82;;;;;;;18.21;37.20;103943.47;7310000;19;133150;-64
2021/12/17 09:36:24;;;;;;;11.45;6.93;;;;;;;18.20;36.79;103959.19;7313714;19;128841;-64
2021/12/17 09:38:52;;;;;;;11.23;6.68;;;;;;;18.22;36.94;103959.91;7311667;19;131504;-64
2021/12/17 09:41:22;;;;;;;14.10;7.32;;;;;;;18.19;37.05;103959.38;7311991;19;131197;-65
2021/12/17 09:43:49;;;;;;;12.75;7.22;;;;;;;18.20;37.13;103963.91;7310929;19;129590;-64
2021/12/17 09:46:17;;;;;;;14.02;7.47;;;;;;;18.19;37.19;103967.69;7310474;19;129238;-64
2021/12/17 09:48:46;;;;;;;14.02;6.90;;;;;;;18.19;37.28;103970.47;7310216;19;131142;-64
2021/12/17 09:51:15;;;;;;;9.57;6.68;;;;;;;18.19;37.03;103968.56;7311304;19;130517;-64
2021/12/17 09:53:41;;;;;;;12.45;6.47;;;;;;;18.19;37.16;103970.47;7314855;19;129862;-64
2021/12/17 09:56:09;;;;;;;12.20;6.78;;;;;;;18.20;37.22;103974.97;7311936;19;129040;-64
2021/12/17 09:58:35;;;;;;;10.75;6.72;;;;;;;18.20;36.90;103966.66;7314274;19;132177;-64
2021/12/17 10:01:03;;;;;;;13.32;6.95;;;;;;;18.20;37.26;103969.44;7310260;19;130555;-64
2021/12/17 10:03:30;;;;;;;10.80;6.18;;;;;;;18.21;37.35;103971.19;7311046;19;129123;-64
2021/12/17 10:05:57;;;;;;;18.02;7.18;;;;;;;18.24;37.34;103980.00;7312956;19;130535;-65
2021/12/17 10:08:24;;;;;;;13.18;6.65;;;;;;;18.30;37.87;103971.00;7313106;19;130680;-64
2021/12/17 10:10:58;;;;;;;14.15;7.07;;;;;;;18.36;37.96;103961.13;7309582;19;130506;-65
2021/12/17 10:13:33;;;;;;;17.65;7.40;;;;;;;18.42;38.43;103963.28;7307049;19;130200;-65
2021/12/17 10:16:07;;;;;;;12.95;7.03;;;;;;;18.48;38.19;103966.38;7308210;19;129091;-65
2021/12/17 10:18:37;;;;;;;11.23;6.35;;;;;;;18.52;38.25;103973.34;7310974;19;130598;-65
2021/12/17 10:21:12;;;;;;;13.35;6.47;;;;;;;18.58;38.23;103975.44;7311149;19;130471;-65
2021/12/17 10:23:42;;;;;;;10.23;6.55;;;;;;;18.61;38.36;103970.41;7310373;19;128837;-63
2021/12/17 10:26:14;;;;;;;11.25;6.10;;;;;;;18.66;38.20;103971.78;7312917;19;131002;-65
2021/12/17 10:28:59;;;;;;;12.55;6.78;;;;;;;18.69;38.44;103968.66;7310011;19;130545;-65
2021/12/17 10:31:28;;;;;;;10.95;6.28;;;;;;;18.69;38.45;103971.44;7310176;19;131441;-65
2021/12/17 10:34:00;;;;;;;13.27;6.93;;;;;;;18.71;38.24;103972.13;7317575;19;128821;-65
2021/12/17 10:36:34;;;;;;;15.80;6.15;;;;;;;18.72;38.03;103963.63;7317995;19;128797;-65
2021/12/17 10:39:30;;;;;;;14.98;6.00;;;;;;;18.74;38.34;103966.25;7318773;19;131322;-65
2021/12/17 10:41:58;;;;;;;16.48;7.00;;;;;;;18.72;37.98;103973.88;7316917;19;130254;-65
2021/12/17 10:44:27;;;;;;;13.32;6.90;;;;;;;18.70;38.01;103965.75;7319472;19;128980;-65
2021/12/17 10:47:15;;;;;;;15.30;7.03;;;;;;;18.69;37.76;103968.66;7315654;19;128804;-65
2021/12/17 10:49:53;;;;;;;9.63;6.35;;;;;;;18.67;37.51;103966.06;7320276;19;131362;-65
2021/12/17 10:52:28;;;;;;;11.73;6.13;;;;;;;18.64;37.79;103969.19;7314992;19;130604;-65
2021/12/17 10:55:14;;;;;;;9.55;6.40;;;;;;;18.62;37.90;103971.25;7318540;19;129908;-65
2021/12/17 10:57:43;;;;;;;13.30;6.35;;;;;;;18.60;37.86;103967.78;7313876;19;128879;-65
2021/12/17 11:00:11;;;;;;;11.00;6.85;;;;;;;18.56;37.70;103970.03;7316369;19;130591;-65
2021/12/17 11:02:47;;;;;;;11.07;6.53;;;;;;;18.56;37.93;103969.19;7314601;19;131515;-65
2021/12/17 11:05:16;;;;;;;11.27;6.78;;;;;;;18.54;37.64;103974.03;7317016;19;130983;-64
2021/12/17 11:07:48;;;;;;;12.80;6.43;;;;;;;18.54;38.11;103965.72;7316948;19;131230;-64
2021/12/17 11:10:16;;;;;;;10.70;6.18;;;;;;;18.52;37.87;103962.25;7313469;19;131435;-65
2021/12/17 11:12:45;;;;;;;12.45;6.72;;;;;;;18.50;38.06;103969.84;7318521;19;131274;-65
2021/12/17 11:15:25;;;;;;;10.55;6.45;;;;;;;18.49;37.79;103959.81;7315906;19;128950;-64
2021/12/17 11:17:58;;;;;;;10.73;6.82;;;;;;;18.47;37.62;103960.00;7318634;19;128865;-64
2021/12/17 11:20:29;;;;;;;9.88;6.13;;;;;;;18.45;37.66;103960.16;7314814;19;130670;-66
2021/12/17 11:23:03;;;;;;;9.48;5.80;;;;;;;18.46;37.73;103958.25;7315911;19;131137;-65
2021/12/17 11:25:30;;;;;;;14.95;6.75;;;;;;;18.46;38.52;103956.34;7314123;19;129000;-66
2021/12/17 11:27:56;;;;;;;16.27;7.25;;;;;;;18.49;38.19;103957.03;7316830;19;131908;-65
2021/12/17 11:30:25;;;;;;;21.05;7.00;;;;;;;18.52;38.47;103951.16;7313328;19;130567;-65
2021/12/17 11:32:54;;;;;;;12.07;6.60;;;;;;;18.54;38.29;103958.25;7317536;19;131186;-65
2021/12/17 11:35:26;;;;;;;15.60;6.43;;;;;;;18.57;38.41;103946.81;7314938;19;129538;-66
2021/12/17 11:38:00;;;;;;;13.13;6.50;;;;;;;18.59;38.65;103954.97;7316160;19;128894;-66
2021/12/17 11:40:52;;;;;;;10.68;6.68;;;;;;;18.63;38.72;103952.72;7317860;19;130904;-66
2021/12/17 11:43:47;;;;;;;15.38;6.82;;;;;;;18.63;38.29;103949.97;7312444;19;130504;-65
2021/12/17 11:46:15;;;;;;;11.73;6.22;;;;;;;18.64;38.62;103949.78;7316817;19;130428;-66
2021/12/17 11:48:56;;;;;;;11.95;6.47;;;;;;;18.66;38.67;103947.69;7315298;19;130946;-65
2021/12/17 11:51:27;;;;;;;15.23;6.10;;;;;;;18.66;38.47;103936.59;7317843;19;130201;-65
2021/12/17 11:53:58;;;;;;;16.40;6.65;;;;;;;18.68;38.50;103939.19;7313141;19;131030;-66
2021/12/17 11:56:46;;;;;;;19.08;6.53;;;;;;;18.69;38.51;103940.94;7317582;19;128927;-66
2021/12/17 11:59:24;;;;;;;13.85;6.82;;;;;;;18.66;38.18;103936.59;7318422;19;129889;-66
2021/12/17 12:02:16;;;;;;;19.45;6.78;;;;;;;18.64;38.33;103941.44;7312061;19;131208;-65
2021/12/17 12:04:48;;;;;;;17.48;6.72;;;;;;;18.60;38.40;103937.28;7316620;19;131498;-65
2021/12/17 12:07:24;;;;;;;17.08;6.00;;;;;;;18.58;38.24;103923.59;7312293;19;129106;-65
2021/12/17 12:10:13;;;;;;;17.23;6.63;;;;;;;18.56;38.39;103925.69;7317961;19;129560;-66
2021/12/17 12:12:46;;;;;;;15.05;6.53;;;;;;;18.54;38.51;103929.66;7314177;19;130311;-65
2021/12/17 12:15:24;;;;;;;11.98;6.07;;;;;;;18.52;38.38;103923.44;7316854;19;131426;-65
2021/12/17 12:18:09;;;;;;;12.10;5.72;;;;;;;18.50;38.20;103922.72;7314752;19;130471;-65
2021/12/17 12:20:48;;;;;;;12.27;5.85;;;;;;;18.48;38.42;103922.03;7312120;19;130683;-65
2021/12/17 12:23:19;;;;;;;11.10;5.65;;;;;;;18.46;38.27;103920.28;7313877;19;130545;-65
2021/12/17 12:25:56;;;;;;;15.52;6.03;;;;;;;18.44;38.37;103907.66;7313120;19;130434;-65
2021/12/17 12:28:47;;;;;;;12.23;5.57;;;;;;;18.44;38.49;103914.09;7316883;19;129248;-65
2021/12/17 12:31:25;;;;;;;11.38;5.60;;;;;;;18.42;38.57;103910.59;7313758;19;129328;-65
2021/12/17 12:34:05;;;;;;;14.05;6.65;;;;;;;18.41;38.60;103908.88;7316424;19;130589;-65
2021/12/17 12:36:46;;;;;;;10.77;5.82;;;;;;;18.40;38.29;103909.06;7313170;19;130423;-65
2021/12/17 12:39:29;;;;;;;11.02;6.03;;;;;;;18.39;38.41;103913.72;7315317;19;128866;-66
2021/12/17 12:42:14;;;;;;;11.82;5.57;;;;;;;18.38;38.53;103916.63;7315825;19;129371;-65
2021/12/17 12:44:44;;;;;;;10.88;5.45;;;;;;;18.37;38.24;103923.22;7313306;19;130894;-65
2021/12/17 12:47:20;;;;;;;11.43;5.25;;;;;;;18.37;38.61;103924.06;7316170;19;131595;-65
2021/12/17 12:50:13;;;;;;;16.80;6.55;;;;;;;18.36;38.22;103925.09;7312999;19;132301;-65
2021/12/17 12:53:04;;;;;;;12.57;5.70;;;;;;;18.35;38.47;103919.75;7307645;19;129359;-65
2021/12/17 12:55:37;;;;;;;9.82;6.10;;;;;;;18.34;38.33;103916.09;7312696;19;130604;-65
2021/12/17 12:58:28;;;;;;;10.88;5.63;;;;;;;18.35;38.37;103919.75;7313846;19;131882;-65
2021/12/17 13:00:59;;;;;;;10.95;5.25;;;;;;;18.32;38.60;103915.41;7314171;19;128903;-65
2021/12/17 13:03:29;;;;;;;9.55;5.00;;;;;;;18.31;38.45;103922.84;7310864;19;129110;-65
2021/12/17 13:05:57;;;;;;;11.40;5.82;;;;;;;18.31;38.42;103920.06;7312862;19;133432;-65
2021/12/17 13:08:25;;;;;;;10.38;5.40;;;;;;;18.31;38.72;103919.22;7306770;19;131819;-64
2021/12/17 13:10:59;;;;;;;9.57;5.45;;;;;;;18.33;38.30;103919.03;7313801;19;129205;-65
2021/12/17 13:13:37;;;;;;;10.30;5.47;;;;;;;18.33;38.34;103914.38;7307578;19;128981;-65
2021/12/17 13:22:13;;;;;;;11.20;5.00;;;;;;;18.33;38.42;103908.84;7310653;19;128891;-65
2021/12/17 13:24:36;;;;;;;10.93;5.70;;;;;;;18.34;38.80;103901.38;7313360;19;128937;-65
2021/12/17 13:27:09;;;;;;;9.05;5.60;;;;;;;18.32;38.51;103896.03;7309174;19;131411;-65
2021/12/17 13:29:43;;;;;;;8.93;5.25;;;;;;;18.32;38.62;103896.03;7312932;19;130511;-65
2021/12/17 13:32:17;;;;;;;10.15;5.53;;;;;;;18.32;38.73;103904.34;7309758;19;129079;-65
2021/12/17 13:34:46;;;;;;;8.63;4.97;;;;;;;18.31;38.82;103895.13;7313542;19;128874;-64
2021/12/17 13:37:16;;;;;;;9.57;5.07;;;;;;;18.31;38.76;103885.97;7312022;19;130705;-65
2021/12/17 13:39:47;;;;;;;8.95;5.75;;;;;;;18.30;38.81;103884.22;7312123;19;130428;-65
2021/12/17 13:42:24;;;;;;;6.60;4.70;;;;;;;18.30;38.74;103881.47;7311362;19;129580;-65
2021/12/17 13:44:56;;;;;;;8.13;5.13;;;;;;;18.28;38.82;103883.53;7307758;19;129028;-65
2021/12/17 13:47:33;;;;;;;7.82;5.05;;;;;;;18.29;38.60;103882.50;7312536;19;131447;-65
2021/12/17 13:50:13;;;;;;;10.10;5.78;;;;;;;18.28;38.50;103884.38;7307734;19;130854;-65
2021/12/17 13:52:54;;;;;;;8.15;4.85;;;;;;;18.29;38.57;103890.81;7308968;19;128876;-65
2021/12/17 13:55:42;;;;;;;9.50;5.55;;;;;;;18.27;38.46;103881.78;7306763;19;129434;-65
2021/12/17 13:58:14;;;;;;;8.40;5.35;;;;;;;18.25;38.77;103890.28;7307632;19;130681;-65
2021/12/17 14:00:44;;;;;;;8.40;5.53;;;;;;;18.25;38.89;103883.88;7306482;19;131047;-65
2021/12/17 14:03:14;;;;;;;7.80;4.68;;;;;;;18.24;38.75;103887.69;7310834;19;128913;-65
2021/12/17 14:05:49;;;;;;;9.57;5.20;;;;;;;18.23;38.90;103885.94;7314155;19;129467;-65
2021/12/17 14:08:20;;;;;;;8.52;5.05;;;;;;;18.23;38.48;103886.81;7318367;19;130798;-65
2021/12/17 14:10:49;;;;;;;8.65;5.22;;;;;;;18.23;38.69;103886.81;7320782;19;130945;-65
2021/12/17 14:13:19;;;;;;;8.32;5.10;;;;;;;18.23;38.74;103891.47;7318084;19;128850;-65
2021/12/17 14:16:03;;;;;;;10.32;4.65;;;;;;;18.22;38.78;103878.66;7321336;19;128683;-65
2021/12/17 14:18:30;;;;;;;7.43;4.22;;;;;;;18.22;38.86;103884.19;7317868;19;130431;-65
2021/12/17 14:21:02;;;;;;;9.15;4.47;;;;;;;18.22;38.47;103878.66;7321083;19;131486;-65
2021/12/17 14:23:31;;;;;;;6.82;4.72;;;;;;;18.20;38.84;103876.06;7318303;19;129587;-65
2021/12/17 14:26:05;;;;;;;11.02;4.97;;;;;;;18.21;38.91;103871.41;7319879;19;128886;-65
2021/12/17 14:28:38;;;;;;;9.18;4.70;;;;;;;18.19;38.91;103879.88;7318458;19;130734;-65
2021/12/17 14:31:12;;;;;;;9.05;4.35;;;;;;;18.19;38.46;103879.03;7320087;19;131166;-65
2021/12/17 14:33:40;;;;;;;6.72;4.50;;;;;;;18.19;38.94;103873.50;7319017;19;129394;-65
2021/12/17 14:36:12;;;;;;;5.97;4.10;;;;;;;18.18;38.43;103874.53;7318999;19;129126;-65
2021/12/17 14:38:50;;;;;;;7.88;4.45;;;;;;;18.17;38.46;103878.31;7318139;19;131303;-65